Aviation Digital Data Service (ADDS)

Output produced by METARs form (0042 UTC 19 August 2019)
found at http://www.aviationweather.gov/metar/data/
 
METAR text: ETHL 190020Z 25006KT 8000 -RA FEW012 SCT030 OVC080 17/16 Q1017 BLU
Conditions at: ETHL (LAUPHEIM (GER-AR, DE) observed 0020 UTC 19 August 2019
Temperature: 17.0°C (63°F)
Dewpoint: 16.0°C (61°F) [RH = 94%]
Pressure (altimeter): 30.03 inches Hg (1017.0 mb)
Winds: from the WSW (250 degrees) at 7 MPH (6 knots; 3.1 m/s)
Visibility: 5 miles ( 8 km)
Ceiling: 8000 feet AGL
Clouds: few clouds at 1200 feet AGL
scattered clouds at 3000 feet AGL
overcast cloud deck at 8000 feet AGL
Weather: -RA  (light rain)

METAR text: ETHL 182320Z 19004KT 8000 -RA SCT015 SCT030CB OVC080 16/16 Q1017 RETS BLU
Conditions at: ETHL (LAUPHEIM (GER-AR, DE) observed 2320 UTC 18 August 2019
Temperature: 16.0°C (61°F)
Dewpoint: 16.0°C (61°F) [RH = 100%]
Pressure (altimeter): 30.03 inches Hg (1017.0 mb)
Winds: from the S (190 degrees) at 5 MPH (4 knots; 2.1 m/s)
Visibility: 5 miles ( 8 km)
Ceiling: 8000 feet AGL
Clouds: scattered clouds at 1500 feet AGL
scattered clouds at 3000 feet AGL
overcast cloud deck at 8000 feet AGL
Weather: -RA  (light rain)

METAR text: ETHL 182248Z 31003KT 6000 -TSRA SCT010 SCT025CB OVC080 16/16 Q1016 RESHRA WHT
Conditions at: ETHL (LAUPHEIM (GER-AR, DE) observed 2248 UTC 18 August 2019
Temperature: 16.0°C (61°F)
Dewpoint: 16.0°C (61°F) [RH = 100%]
Pressure (altimeter): 30.00 inches Hg (1016.0 mb)
Winds: from the NW (310 degrees) at 3 MPH (3 knots; 1.5 m/s)
Visibility: 4 miles ( 6 km)
Ceiling: 8000 feet AGL
Clouds: scattered clouds at 1000 feet AGL
scattered clouds at 2500 feet AGL
overcast cloud deck at 8000 feet AGL
Weather: -TSRA  (light rain associated with thunderstorm(s))

METAR text: ETHL 182233Z 29011G29KT 3200 TSRA SCT010 OVC025CB 17/16 Q1016 YLO
Conditions at: ETHL (LAUPHEIM (GER-AR, DE) observed 2233 UTC 18 August 2019
Temperature: 17.0°C (63°F)
Dewpoint: 16.0°C (61°F) [RH = 94%]
Pressure (altimeter): 30.00 inches Hg (1016.0 mb)
Winds: from the WNW (290 degrees) at 13 MPH (11 knots; 5.7 m/s)
gusting to 33 MPH (29 knots; 14.9 m/s)
Visibility: 1.99 miles (3.20 km)
Ceiling: 2500 feet AGL
Clouds: scattered clouds at 1000 feet AGL
overcast cloud deck at 2500 feet AGL
Weather: TSRA  (rain associated with thunderstorm(s))

METAR text: ETHL 182226Z 28012G29KT 1200 +TSRA SCT010 OVC020CB 19/17 Q1016 AMB
Conditions at: ETHL (LAUPHEIM (GER-AR, DE) observed 2226 UTC 18 August 2019
Temperature: 19.0°C (66°F)
Dewpoint: 17.0°C (63°F) [RH = 88%]
Pressure (altimeter): 30.00 inches Hg (1016.0 mb)
Winds: from the W (280 degrees) at 14 MPH (12 knots; 6.2 m/s)
gusting to 33 MPH (29 knots; 14.9 m/s)
Visibility: 0.75 miles (1.21 km)
Ceiling: 2000 feet AGL
Clouds: scattered clouds at 1000 feet AGL
overcast cloud deck at 2000 feet AGL
Weather: +TSRA  (heavy rain associated with thunderstorm(s))

METAR text: ETHL 182220Z 30003G13KT 6000 -TSRA FEW012 SCT035CB BKN070 19/17 Q1015 RESHRA WHT
Conditions at: ETHL (LAUPHEIM (GER-AR, DE) observed 2220 UTC 18 August 2019
Temperature: 19.0°C (66°F)
Dewpoint: 17.0°C (63°F) [RH = 88%]
Pressure (altimeter): 29.97 inches Hg (1015.0 mb)
Winds: from the WNW (300 degrees) at 3 MPH (3 knots; 1.5 m/s)
gusting to 15 MPH (13 knots; 6.7 m/s)
Visibility: 4 miles ( 6 km)
Ceiling: 7000 feet AGL
Clouds: few clouds at 1200 feet AGL
scattered clouds at 3500 feet AGL
broken clouds at 7000 feet AGL
Weather: -TSRA  (light rain associated with thunderstorm(s))

METAR text: ETHL 182144Z 20004KT 5000 -TSRA BR FEW015 SCT040CB BKN080 19/18 Q1013 RERA WHT
Conditions at: ETHL (LAUPHEIM (GER-AR, DE) observed 2144 UTC 18 August 2019
Temperature: 19.0°C (66°F)
Dewpoint: 18.0°C (64°F) [RH = 94%]
Pressure (altimeter): 29.91 inches Hg (1013.0 mb)
Winds: from the SSW (200 degrees) at 5 MPH (4 knots; 2.1 m/s)
Visibility: 3 miles ( 5 km)
Ceiling: 8000 feet AGL
Clouds: few clouds at 1500 feet AGL
scattered clouds at 4000 feet AGL
broken clouds at 8000 feet AGL
Weather: -TSRA BR  (light rain associated with thunderstorm(s), mist)

METAR text: ETHL 182135Z 20009G23KT 3700 TSRA FEW015 SCT040CB BKN070 19/18 Q1014 GRN
Conditions at: ETHL (LAUPHEIM (GER-AR, DE) observed 2135 UTC 18 August 2019
Temperature: 19.0°C (66°F)
Dewpoint: 18.0°C (64°F) [RH = 94%]
Pressure (altimeter): 29.94 inches Hg (1014.0 mb)
Winds: from the SSW (200 degrees) at 10 MPH (9 knots; 4.6 m/s)
gusting to 26 MPH (23 knots; 11.8 m/s)
Visibility: 2.30 miles (3.70 km)
Ceiling: 7000 feet AGL
Clouds: few clouds at 1500 feet AGL
scattered clouds at 4000 feet AGL
broken clouds at 7000 feet AGL
Weather: TSRA  (rain associated with thunderstorm(s))

METAR text: ETHL 182120Z 08003KT 9999 TS FEW020 FEW045CB BKN080 19/17 Q1012 BLU
Conditions at: ETHL (LAUPHEIM (GER-AR, DE) observed 2120 UTC 18 August 2019
Temperature: 19.0°C (66°F)
Dewpoint: 17.0°C (63°F) [RH = 88%]
Pressure (altimeter): 29.88 inches Hg (1012.0 mb)
Winds: from the E (80 degrees) at 3 MPH (3 knots; 1.5 m/s)
Visibility: 6 or more miles (10+ km)
Ceiling: 8000 feet AGL
Clouds: few clouds at 2000 feet AGL
few clouds at 4500 feet AGL
broken clouds at 8000 feet AGL
Weather: TS  (thunderstorm)

METAR text: ETHL 182020Z 18006KT 9999 -TSRA FEW018 SCT045CB BKN090 21/17 Q1013 BLU
Conditions at: ETHL (LAUPHEIM (GER-AR, DE) observed 2020 UTC 18 August 2019
Temperature: 21.0°C (70°F)
Dewpoint: 17.0°C (63°F) [RH = 78%]
Pressure (altimeter): 29.91 inches Hg (1013.0 mb)
Winds: from the S (180 degrees) at 7 MPH (6 knots; 3.1 m/s)
Visibility: 6 or more miles (10+ km)
Ceiling: 9000 feet AGL
Clouds: few clouds at 1800 feet AGL
scattered clouds at 4500 feet AGL
broken clouds at 9000 feet AGL
Weather: -TSRA  (light rain associated with thunderstorm(s))

METAR text: ETHL 181940Z VRB03KT 9999 -TSRA FEW050CB BKN100 24/14 Q1012 BLU
Conditions at: ETHL (LAUPHEIM (GER-AR, DE) observed 1940 UTC 18 August 2019
Temperature: 24.0°C (75°F)
Dewpoint: 14.0°C (57°F) [RH = 54%]
Pressure (altimeter): 29.88 inches Hg (1012.0 mb)
Winds: variable direction winds at 3 MPH (3 knots; 1.5 m/s)
Visibility: 6 or more miles (10+ km)
Ceiling: 10000 feet AGL
Clouds: few clouds at 5000 feet AGL
broken clouds at 10000 feet AGL
Weather: -TSRA  (light rain associated with thunderstorm(s))

METAR text: ETHL 181920Z 30003KT 9999 SCT050 SCT120 25/15 Q1012 BLU+
Conditions at: ETHL (LAUPHEIM (GER-AR, DE) observed 1920 UTC 18 August 2019
Temperature: 25.0°C (77°F)
Dewpoint: 15.0°C (59°F) [RH = 54%]
Pressure (altimeter): 29.88 inches Hg (1012.0 mb)
Winds: from the WNW (300 degrees) at 3 MPH (3 knots; 1.5 m/s)
Visibility: 6 or more miles (10+ km)
Ceiling: at least 12,000 feet AGL
Clouds: scattered clouds at 5000 feet AGL
scattered clouds at 12000 feet AGL
Weather: no significant weather observed at this time

METAR text: ETHL 181820Z 32003KT 9999 SCT060 26/14 Q1011 BLU+
Conditions at: ETHL (LAUPHEIM (GER-AR, DE) observed 1820 UTC 18 August 2019
Temperature: 26.0°C (79°F)
Dewpoint: 14.0°C (57°F) [RH = 48%]
Pressure (altimeter): 29.85 inches Hg (1011.0 mb)
Winds: from the NW (320 degrees) at 3 MPH (3 knots; 1.5 m/s)
Visibility: 6 or more miles (10+ km)
Ceiling: at least 12,000 feet AGL
Clouds: scattered clouds at 6000 feet AGL
Weather: no significant weather observed at this time

METAR text: ETHL 181720Z 32003KT 9999 FEW060TCU 28/14 Q1011 BLU+
Conditions at: ETHL (LAUPHEIM (GER-AR, DE) observed 1720 UTC 18 August 2019
Temperature: 28.0°C (82°F)
Dewpoint: 14.0°C (57°F) [RH = 42%]
Pressure (altimeter): 29.85 inches Hg (1011.0 mb)
Winds: from the NW (320 degrees) at 3 MPH (3 knots; 1.5 m/s)
Visibility: 6 or more miles (10+ km)
Ceiling: at least 12,000 feet AGL
Clouds: few clouds at 6000 feet AGL
Weather: no significant weather observed at this time

METAR text: ETHL 181620Z AUTO 24011KT 7000 // ////// 30/13 Q1010 ///
Conditions at: ETHL (LAUPHEIM (GER-AR, DE) observed 1620 UTC 18 August 2019
Temperature: 30.0°C (86°F)
Dewpoint: 13.0°C (55°F) [RH = 35%]
Pressure (altimeter): 29.82 inches Hg (1010.0 mb)
Winds: from the WSW (240 degrees) at 13 MPH (11 knots; 5.7 m/s)
Visibility: 4 miles ( 7 km)
Ceiling: unknown
Clouds: missing
Weather: no significant weather observed at this time

METAR text: ETHL 181520Z AUTO 22012G22KT 7000 // ////// 30/12 Q1010 ///
Conditions at: ETHL (LAUPHEIM (GER-AR, DE) observed 1520 UTC 18 August 2019
Temperature: 30.0°C (86°F)
Dewpoint: 12.0°C (54°F) [RH = 33%]
Pressure (altimeter): 29.82 inches Hg (1010.0 mb)
Winds: from the SW (220 degrees) at 14 MPH (12 knots; 6.2 m/s)
gusting to 25 MPH (22 knots; 11.3 m/s)
Visibility: 4 miles ( 7 km)
Ceiling: unknown
Clouds: missing
Weather: no significant weather observed at this time

METAR text: ETHL 181420Z AUTO 24008KT 8000 // ////// 31/13 Q1010 ///
Conditions at: ETHL (LAUPHEIM (GER-AR, DE) observed 1420 UTC 18 August 2019
Temperature: 31.0°C (88°F)
Dewpoint: 13.0°C (55°F) [RH = 33%]
Pressure (altimeter): 29.82 inches Hg (1010.0 mb)
Winds: from the WSW (240 degrees) at 9 MPH (8 knots; 4.1 m/s)
Visibility: 5 miles ( 8 km)
Ceiling: unknown
Clouds: missing
Weather: no significant weather observed at this time

METAR text: ETHL 181320Z AUTO 24010KT 8000 // ////// 30/12 Q1011 ///
Conditions at: ETHL (LAUPHEIM (GER-AR, DE) observed 1320 UTC 18 August 2019
Temperature: 30.0°C (86°F)
Dewpoint: 12.0°C (54°F) [RH = 33%]
Pressure (altimeter): 29.85 inches Hg (1011.0 mb)
Winds: from the WSW (240 degrees) at 12 MPH (10 knots; 5.1 m/s)
Visibility: 5 miles ( 8 km)
Ceiling: unknown
Clouds: missing
Weather: no significant weather observed at this time

METAR text: ETHL 181220Z AUTO 22008KT 7000 // ////// 29/14 Q1011 ///
Conditions at: ETHL (LAUPHEIM (GER-AR, DE) observed 1220 UTC 18 August 2019
Temperature: 29.0°C (84°F)
Dewpoint: 14.0°C (57°F) [RH = 40%]
Pressure (altimeter): 29.85 inches Hg (1011.0 mb)
Winds: from the SW (220 degrees) at 9 MPH (8 knots; 4.1 m/s)
Visibility: 4 miles ( 7 km)
Ceiling: unknown
Clouds: missing
Weather: no significant weather observed at this time

METAR text: ETHL 181120Z AUTO 23009KT 6000 // ////// 28/13 Q1011 ///
Conditions at: ETHL (LAUPHEIM (GER-AR, DE) observed 1120 UTC 18 August 2019
Temperature: 28.0°C (82°F)
Dewpoint: 13.0°C (55°F) [RH = 40%]
Pressure (altimeter): 29.85 inches Hg (1011.0 mb)
Winds: from the SW (230 degrees) at 10 MPH (9 knots; 4.6 m/s)
Visibility: 4 miles ( 6 km)
Ceiling: unknown
Clouds: missing
Weather: no significant weather observed at this time

METAR text: ETHL 181020Z AUTO 23010KT 7000 // ////// 27/14 Q1012 ///
Conditions at: ETHL (LAUPHEIM (GER-AR, DE) observed 1020 UTC 18 August 2019
Temperature: 27.0°C (81°F)
Dewpoint: 14.0°C (57°F) [RH = 45%]
Pressure (altimeter): 29.88 inches Hg (1012.0 mb)
Winds: from the SW (230 degrees) at 12 MPH (10 knots; 5.1 m/s)
Visibility: 4 miles ( 7 km)
Ceiling: unknown
Clouds: missing
Weather: no significant weather observed at this time

METAR text: ETHL 180920Z AUTO 24009KT 7000 // ////// 25/14 Q1012 ///
Conditions at: ETHL (LAUPHEIM (GER-AR, DE) observed 0920 UTC 18 August 2019
Temperature: 25.0°C (77°F)
Dewpoint: 14.0°C (57°F) [RH = 50%]
Pressure (altimeter): 29.88 inches Hg (1012.0 mb)
Winds: from the WSW (240 degrees) at 10 MPH (9 knots; 4.6 m/s)
Visibility: 4 miles ( 7 km)
Ceiling: unknown
Clouds: missing
Weather: no significant weather observed at this time

METAR text: ETHL 180820Z AUTO 24006KT 6000 // ////// 23/15 Q1012 ///
Conditions at: ETHL (LAUPHEIM (GER-AR, DE) observed 0820 UTC 18 August 2019
Temperature: 23.0°C (73°F)
Dewpoint: 15.0°C (59°F) [RH = 61%]
Pressure (altimeter): 29.88 inches Hg (1012.0 mb)
Winds: from the WSW (240 degrees) at 7 MPH (6 knots; 3.1 m/s)
Visibility: 4 miles ( 6 km)
Ceiling: unknown
Clouds: missing
Weather: no significant weather observed at this time

METAR text: ETHL 180720Z AUTO 22004KT 5000 // ////// 21/15 Q1012 ///
Conditions at: ETHL (LAUPHEIM (GER-AR, DE) observed 0720 UTC 18 August 2019
Temperature: 21.0°C (70°F)
Dewpoint: 15.0°C (59°F) [RH = 69%]
Pressure (altimeter): 29.88 inches Hg (1012.0 mb)
Winds: from the SW (220 degrees) at 5 MPH (4 knots; 2.1 m/s)
Visibility: 3 miles ( 5 km)
Ceiling: unknown
Clouds: missing
Weather: no significant weather observed at this time

METAR text: ETHL 180620Z AUTO 23004KT 5000 // ////// 18/15 Q1013 ///
Conditions at: ETHL (LAUPHEIM (GER-AR, DE) observed 0620 UTC 18 August 2019
Temperature: 18.0°C (64°F)
Dewpoint: 15.0°C (59°F) [RH = 83%]
Pressure (altimeter): 29.91 inches Hg (1013.0 mb)
Winds: from the SW (230 degrees) at 5 MPH (4 knots; 2.1 m/s)
Visibility: 3 miles ( 5 km)
Ceiling: unknown
Clouds: missing
Weather: no significant weather observed at this time

METAR text: ETHL 180520Z AUTO 29001KT 4900 // ////// 15/14 Q1013 ///
Conditions at: ETHL (LAUPHEIM (GER-AR, DE) observed 0520 UTC 18 August 2019
Temperature: 15.0°C (59°F)
Dewpoint: 14.0°C (57°F) [RH = 94%]
Pressure (altimeter): 29.91 inches Hg (1013.0 mb)
Winds: from the WNW (290 degrees) at 1 MPH (1 knots; 0.5 m/s)
Visibility: 3 miles ( 5 km)
Ceiling: unknown
Clouds: missing
Weather: no significant weather observed at this time

METAR text: ETHL 180420Z AUTO 20003KT 5000 // ////// 14/13 Q1012 ///
Conditions at: ETHL (LAUPHEIM (GER-AR, DE) observed 0420 UTC 18 August 2019
Temperature: 14.0°C (57°F)
Dewpoint: 13.0°C (55°F) [RH = 94%]
Pressure (altimeter): 29.88 inches Hg (1012.0 mb)
Winds: from the SSW (200 degrees) at 3 MPH (3 knots; 1.5 m/s)
Visibility: 3 miles ( 5 km)
Ceiling: unknown
Clouds: missing
Weather: no significant weather observed at this time

METAR text: ETHL 180320Z AUTO 24003KT 4800 // ////// 14/13 Q1013 ///
Conditions at: ETHL (LAUPHEIM (GER-AR, DE) observed 0320 UTC 18 August 2019
Temperature: 14.0°C (57°F)
Dewpoint: 13.0°C (55°F) [RH = 94%]
Pressure (altimeter): 29.91 inches Hg (1013.0 mb)
Winds: from the WSW (240 degrees) at 3 MPH (3 knots; 1.5 m/s)
Visibility: 2.98 miles (4.80 km)
Ceiling: unknown
Clouds: missing
Weather: no significant weather observed at this time

METAR text: ETHL 180220Z AUTO 22002KT 5000 // ////// 15/14 Q1012 ///
Conditions at: ETHL (LAUPHEIM (GER-AR, DE) observed 0220 UTC 18 August 2019
Temperature: 15.0°C (59°F)
Dewpoint: 14.0°C (57°F) [RH = 94%]
Pressure (altimeter): 29.88 inches Hg (1012.0 mb)
Winds: from the SW (220 degrees) at 2 MPH (2 knots; 1.0 m/s)
Visibility: 3 miles ( 5 km)
Ceiling: unknown
Clouds: missing
Weather: no significant weather observed at this time

METAR text: ETHL 180120Z AUTO 00000KT 5000 // ////// 15/14 Q1013 ///
Conditions at: ETHL (LAUPHEIM (GER-AR, DE) observed 0120 UTC 18 August 2019
Temperature: 15.0°C (59°F)
Dewpoint: 14.0°C (57°F) [RH = 94%]
Pressure (altimeter): 29.91 inches Hg (1013.0 mb)
Winds: calm
Visibility: 3 miles ( 5 km)
Ceiling: unknown
Clouds: missing
Weather: no significant weather observed at this time

METAR text: ETHL 180020Z AUTO 34001KT 5000 // ////// 15/14 Q1013 ///
Conditions at: ETHL (LAUPHEIM (GER-AR, DE) observed 0020 UTC 18 August 2019
Temperature: 15.0°C (59°F)
Dewpoint: 14.0°C (57°F) [RH = 94%]
Pressure (altimeter): 29.91 inches Hg (1013.0 mb)
Winds: from the NNW (340 degrees) at 1 MPH (1 knots; 0.5 m/s)
Visibility: 3 miles ( 5 km)
Ceiling: unknown
Clouds: missing
Weather: no significant weather observed at this time

METAR text: ETHL 172320Z AUTO 33001KT 4900 // ////// 16/15 Q1013 ///
Conditions at: ETHL (LAUPHEIM (GER-AR, DE) observed 2320 UTC 17 August 2019
Temperature: 16.0°C (61°F)
Dewpoint: 15.0°C (59°F) [RH = 94%]
Pressure (altimeter): 29.91 inches Hg (1013.0 mb)
Winds: from the NNW (330 degrees) at 1 MPH (1 knots; 0.5 m/s)
Visibility: 3 miles ( 5 km)
Ceiling: unknown
Clouds: missing
Weather: no significant weather observed at this time

METAR text: ETHL 172220Z AUTO 05003KT 5000 // ////// 17/15 Q1014 ///
Conditions at: ETHL (LAUPHEIM (GER-AR, DE) observed 2220 UTC 17 August 2019
Temperature: 17.0°C (63°F)
Dewpoint: 15.0°C (59°F) [RH = 88%]
Pressure (altimeter): 29.94 inches Hg (1014.0 mb)
Winds: from the NE (50 degrees) at 3 MPH (3 knots; 1.5 m/s)
Visibility: 3 miles ( 5 km)
Ceiling: unknown
Clouds: missing
Weather: no significant weather observed at this time

METAR text: ETHL 172120Z AUTO 05004KT 5000 // ////// 17/16 Q1014 ///
Conditions at: ETHL (LAUPHEIM (GER-AR, DE) observed 2120 UTC 17 August 2019
Temperature: 17.0°C (63°F)
Dewpoint: 16.0°C (61°F) [RH = 94%]
Pressure (altimeter): 29.94 inches Hg (1014.0 mb)
Winds: from the NE (50 degrees) at 5 MPH (4 knots; 2.1 m/s)
Visibility: 3 miles ( 5 km)
Ceiling: unknown
Clouds: missing
Weather: no significant weather observed at this time

METAR text: ETHL 172020Z AUTO 04002KT 4400 // ////// 18/16 Q1015 ///
Conditions at: ETHL (LAUPHEIM (GER-AR, DE) observed 2020 UTC 17 August 2019
Temperature: 18.0°C (64°F)
Dewpoint: 16.0°C (61°F) [RH = 88%]
Pressure (altimeter): 29.97 inches Hg (1015.0 mb)
Winds: from the NE (40 degrees) at 2 MPH (2 knots; 1.0 m/s)
Visibility: 2.73 miles (4.39 km)
Ceiling: unknown
Clouds: missing
Weather: no significant weather observed at this time

METAR text: ETHL 171920Z AUTO 00000KT 5000 // ////// 18/15 Q1015 ///
Conditions at: ETHL (LAUPHEIM (GER-AR, DE) observed 1920 UTC 17 August 2019
Temperature: 18.0°C (64°F)
Dewpoint: 15.0°C (59°F) [RH = 83%]
Pressure (altimeter): 29.97 inches Hg (1015.0 mb)
Winds: calm
Visibility: 3 miles ( 5 km)
Ceiling: unknown
Clouds: missing
Weather: no significant weather observed at this time

METAR text: ETHL 171820Z AUTO 11002KT 5000 // ////// 19/15 Q1014 ///
Conditions at: ETHL (LAUPHEIM (GER-AR, DE) observed 1820 UTC 17 August 2019
Temperature: 19.0°C (66°F)
Dewpoint: 15.0°C (59°F) [RH = 78%]
Pressure (altimeter): 29.94 inches Hg (1014.0 mb)
Winds: from the ESE (110 degrees) at 2 MPH (2 knots; 1.0 m/s)
Visibility: 3 miles ( 5 km)
Ceiling: unknown
Clouds: missing
Weather: no significant weather observed at this time

METAR text: ETHL 171720Z AUTO 18002KT 6000 // ////// 20/14 Q1015 ///
Conditions at: ETHL (LAUPHEIM (GER-AR, DE) observed 1720 UTC 17 August 2019
Temperature: 20.0°C (68°F)
Dewpoint: 14.0°C (57°F) [RH = 68%]
Pressure (altimeter): 29.97 inches Hg (1015.0 mb)
Winds: from the S (180 degrees) at 2 MPH (2 knots; 1.0 m/s)
Visibility: 4 miles ( 6 km)
Ceiling: unknown
Clouds: missing
Weather: no significant weather observed at this time

METAR text: ETHL 171620Z AUTO 25003KT 7000 // ////// 21/14 Q1015 ///
Conditions at: ETHL (LAUPHEIM (GER-AR, DE) observed 1620 UTC 17 August 2019
Temperature: 21.0°C (70°F)
Dewpoint: 14.0°C (57°F) [RH = 64%]
Pressure (altimeter): 29.97 inches Hg (1015.0 mb)
Winds: from the WSW (250 degrees) at 3 MPH (3 knots; 1.5 m/s)
Visibility: 4 miles ( 7 km)
Ceiling: unknown
Clouds: missing
Weather: no significant weather observed at this time

METAR text: ETHL 171520Z AUTO 24005KT 8000 // ////// 21/12 Q1014 ///
Conditions at: ETHL (LAUPHEIM (GER-AR, DE) observed 1520 UTC 17 August 2019
Temperature: 21.0°C (70°F)
Dewpoint: 12.0°C (54°F) [RH = 56%]
Pressure (altimeter): 29.94 inches Hg (1014.0 mb)
Winds: from the WSW (240 degrees) at 6 MPH (5 knots; 2.6 m/s)
Visibility: 5 miles ( 8 km)
Ceiling: unknown
Clouds: missing
Weather: no significant weather observed at this time

METAR text: ETHL 171420Z AUTO 22009KT 8000 // ////// 22/13 Q1014 ///
Conditions at: ETHL (LAUPHEIM (GER-AR, DE) observed 1420 UTC 17 August 2019
Temperature: 22.0°C (72°F)
Dewpoint: 13.0°C (55°F) [RH = 57%]
Pressure (altimeter): 29.94 inches Hg (1014.0 mb)
Winds: from the SW (220 degrees) at 10 MPH (9 knots; 4.6 m/s)
Visibility: 5 miles ( 8 km)
Ceiling: unknown
Clouds: missing
Weather: no significant weather observed at this time

METAR text: ETHL 171320Z AUTO 22007KT 8000 // ////// 22/12 Q1015 ///
Conditions at: ETHL (LAUPHEIM (GER-AR, DE) observed 1320 UTC 17 August 2019
Temperature: 22.0°C (72°F)
Dewpoint: 12.0°C (54°F) [RH = 53%]
Pressure (altimeter): 29.97 inches Hg (1015.0 mb)
Winds: from the SW (220 degrees) at 8 MPH (7 knots; 3.6 m/s)
Visibility: 5 miles ( 8 km)
Ceiling: unknown
Clouds: missing
Weather: no significant weather observed at this time